# Tabular Observed and Forecast Hydrograph Information
#
# Location: Mill Creek - Los Molinos (MLMC1)
#
# File Generation Time: 05/02/2026 at 07:34 AM PDT
# Data Interval: 1 Hour
#
# Most Recent Date & Time of Maximum Observed: 04/27/2026 at 09:00 AM PDT
# Maximum Observed Stage: 3.38 Feet
# Maximum Observed Flow: 473 cfs
#
# Earliest Date & Time of Maximum Forecast: 05/05/2026 at 05:00 AM PDT
# Maximum Forecast Stage: 3.74 Feet
# Maximum Forecast Flow: 607 cfs
#
# OBSERVED
#
# Date & Time (Local) Stage (Feet) Flow (cfs) Trend Observed Status
# ---------------------------------------------------------------------------------
04/27/2026 07 AM PDT 3.37 470 Not Applicable
04/27/2026 08 AM PDT 3.38 473 + Not Applicable
04/27/2026 09 AM PDT 3.38 473 0 Not Applicable
04/27/2026 10 AM PDT 3.37 470 - Not Applicable
04/27/2026 11 AM PDT 3.37 470 0 Not Applicable
04/27/2026 12 PM PDT 3.36 466 - Not Applicable
04/27/2026 01 PM PDT 3.36 466 0 Not Applicable
04/27/2026 02 PM PDT 3.35 463 - Not Applicable
04/27/2026 03 PM PDT 3.35 463 0 Not Applicable
04/27/2026 04 PM PDT 3.34 460 - Not Applicable
04/27/2026 05 PM PDT 3.33 456 - Not Applicable
04/27/2026 06 PM PDT 3.32 453 - Not Applicable
04/27/2026 07 PM PDT 3.32 453 0 Not Applicable
04/27/2026 08 PM PDT 3.31 450 - Not Applicable
04/27/2026 09 PM PDT 3.30 447 - Not Applicable
04/27/2026 10 PM PDT 3.29 444 - Not Applicable
04/27/2026 11 PM PDT 3.29 444 0 Not Applicable
04/28/2026 12 AM PDT 3.28 440 - Not Applicable
04/28/2026 01 AM PDT 3.28 440 0 Not Applicable
04/28/2026 02 AM PDT 3.27 437 - Not Applicable
04/28/2026 03 AM PDT 3.27 437 0 Not Applicable
04/28/2026 04 AM PDT 3.27 437 0 Not Applicable
04/28/2026 05 AM PDT 3.27 437 0 Not Applicable
04/28/2026 06 AM PDT 3.27 437 0 Not Applicable
04/28/2026 07 AM PDT 3.26 434 - Not Applicable
04/28/2026 08 AM PDT 3.26 434 0 Not Applicable
04/28/2026 09 AM PDT 3.26 434 0 Not Applicable
04/28/2026 10 AM PDT 3.26 434 0 Not Applicable
04/28/2026 11 AM PDT 3.25 431 - Not Applicable
04/28/2026 12 PM PDT 3.25 431 0 Not Applicable
04/28/2026 01 PM PDT 3.24 428 - Not Applicable
04/28/2026 02 PM PDT 3.24 428 0 Not Applicable
04/28/2026 03 PM PDT 3.23 425 - Not Applicable
04/28/2026 04 PM PDT 3.23 425 0 Not Applicable
04/28/2026 05 PM PDT 3.22 421 - Not Applicable
04/28/2026 06 PM PDT 3.22 421 0 Not Applicable
04/28/2026 07 PM PDT 3.20 415 - Not Applicable
04/28/2026 08 PM PDT 3.20 415 0 Not Applicable
04/28/2026 09 PM PDT 3.19 412 - Not Applicable
04/28/2026 10 PM PDT 3.18 409 - Not Applicable
04/28/2026 11 PM PDT 3.17 406 - Not Applicable
04/29/2026 12 AM PDT 3.18 409 + Not Applicable
04/29/2026 01 AM PDT 3.17 406 - Not Applicable
04/29/2026 02 AM PDT 3.17 406 0 Not Applicable
04/29/2026 03 AM PDT 3.16 403 - Not Applicable
04/29/2026 04 AM PDT 3.16 403 0 Not Applicable
04/29/2026 05 AM PDT 3.17 406 + Not Applicable
04/29/2026 06 AM PDT 3.17 406 0 Not Applicable
04/29/2026 07 AM PDT 3.17 406 0 Not Applicable
04/29/2026 08 AM PDT 3.18 409 + Not Applicable
04/29/2026 09 AM PDT 3.19 412 + Not Applicable
04/29/2026 10 AM PDT 3.19 412 0 Not Applicable
04/29/2026 11 AM PDT 3.18 409 - Not Applicable
04/29/2026 12 PM PDT 3.18 409 0 Not Applicable
04/29/2026 01 PM PDT 3.17 406 - Not Applicable
04/29/2026 02 PM PDT 3.17 406 0 Not Applicable
04/29/2026 03 PM PDT 3.16 403 - Not Applicable
04/29/2026 04 PM PDT 3.16 403 0 Not Applicable
04/29/2026 05 PM PDT 3.15 400 - Not Applicable
04/29/2026 06 PM PDT 3.14 397 - Not Applicable
04/29/2026 07 PM PDT 3.14 397 0 Not Applicable
04/29/2026 08 PM PDT 3.13 394 - Not Applicable
04/29/2026 09 PM PDT 3.12 391 - Not Applicable
04/29/2026 10 PM PDT 3.11 388 - Not Applicable
04/29/2026 11 PM PDT 3.10 385 - Not Applicable
04/30/2026 12 AM PDT 3.10 385 0 Not Applicable
04/30/2026 01 AM PDT 3.09 382 - Not Applicable
04/30/2026 02 AM PDT 3.09 382 0 Not Applicable
04/30/2026 03 AM PDT 3.08 379 - Not Applicable
04/30/2026 04 AM PDT 3.09 382 + Not Applicable
04/30/2026 05 AM PDT 3.09 382 0 Not Applicable
04/30/2026 06 AM PDT 3.10 385 + Not Applicable
04/30/2026 07 AM PDT 3.11 388 + Not Applicable
04/30/2026 08 AM PDT 3.12 391 + Not Applicable
04/30/2026 09 AM PDT 3.14 397 + Not Applicable
04/30/2026 10 AM PDT 3.14 397 0 Not Applicable
04/30/2026 11 AM PDT 3.13 394 - Not Applicable
04/30/2026 12 PM PDT 3.13 394 0 Not Applicable
04/30/2026 01 PM PDT 3.13 394 0 Not Applicable
04/30/2026 02 PM PDT 3.12 391 - Not Applicable
04/30/2026 03 PM PDT 3.11 388 - Not Applicable
04/30/2026 04 PM PDT 3.11 388 0 Not Applicable
04/30/2026 05 PM PDT 3.10 385 - Not Applicable
04/30/2026 06 PM PDT 3.09 382 - Not Applicable
04/30/2026 07 PM PDT 3.08 379 - Not Applicable
04/30/2026 08 PM PDT 3.07 376 - Not Applicable
04/30/2026 09 PM PDT 3.07 376 0 Not Applicable
04/30/2026 10 PM PDT 3.06 373 - Not Applicable
04/30/2026 11 PM PDT 3.05 370 - Not Applicable
05/01/2026 12 AM PDT 3.05 370 0 Not Applicable
05/01/2026 01 AM PDT 3.04 368 - Not Applicable
05/01/2026 02 AM PDT 3.04 368 0 Not Applicable
05/01/2026 03 AM PDT 3.04 368 0 Not Applicable
05/01/2026 04 AM PDT 3.05 370 + Not Applicable
05/01/2026 05 AM PDT 3.05 370 0 Not Applicable
05/01/2026 06 AM PDT 3.06 373 + Not Applicable
05/01/2026 07 AM PDT 3.08 379 + Not Applicable
05/01/2026 08 AM PDT 3.09 382 + Not Applicable
05/01/2026 09 AM PDT 3.10 385 + Not Applicable
05/01/2026 10 AM PDT 3.10 385 0 Not Applicable
05/01/2026 11 AM PDT 3.10 385 0 Not Applicable
05/01/2026 12 PM PDT 3.09 382 - Not Applicable
05/01/2026 01 PM PDT 3.09 382 0 Not Applicable
05/01/2026 02 PM PDT 3.08 379 - Not Applicable
05/01/2026 03 PM PDT 3.07 376 - Not Applicable
05/01/2026 04 PM PDT 3.07 376 0 Not Applicable
05/01/2026 05 PM PDT 3.06 373 - Not Applicable
05/01/2026 06 PM PDT 3.06 373 0 Not Applicable
05/01/2026 07 PM PDT 3.05 370 - Not Applicable
05/01/2026 08 PM PDT 3.04 368 - Not Applicable
05/01/2026 09 PM PDT 3.03 365 - Not Applicable
05/01/2026 10 PM PDT 3.03 365 0 Not Applicable
05/01/2026 11 PM PDT 3.02 362 - Not Applicable
05/02/2026 12 AM PDT 3.01 359 - Not Applicable
05/02/2026 01 AM PDT 3.00 356 - Not Applicable
05/02/2026 02 AM PDT 3.00 356 0 Not Applicable
05/02/2026 03 AM PDT 3.00 356 0 Not Applicable
05/02/2026 04 AM PDT 3.01 359 + Not Applicable
05/02/2026 05 AM PDT 3.02 362 + Not Applicable
05/02/2026 06 AM PDT 3.03 365 + Not Applicable
05/02/2026 07 AM PDT 3.03 365 0 Not Applicable
#
# FORECAST
#
# Date & Time (Local) Stage (Feet) Flow (cfs) Trend Forecast Status
# ---------------------------------------------------------------------------------
05/02/2026 08 AM PDT 3.04 368 Not Applicable
05/02/2026 09 AM PDT 3.04 368 0 Not Applicable
05/02/2026 10 AM PDT 3.04 368 0 Not Applicable
05/02/2026 11 AM PDT 3.04 368 0 Not Applicable
05/02/2026 12 PM PDT 3.04 368 0 Not Applicable
05/02/2026 01 PM PDT 3.04 368 0 Not Applicable
05/02/2026 02 PM PDT 3.04 368 0 Not Applicable
05/02/2026 03 PM PDT 3.04 368 0 Not Applicable
05/02/2026 04 PM PDT 3.03 365 - Not Applicable
05/02/2026 05 PM PDT 3.03 365 0 Not Applicable
05/02/2026 06 PM PDT 3.02 362 - Not Applicable
05/02/2026 07 PM PDT 3.02 362 0 Not Applicable
05/02/2026 08 PM PDT 3.02 362 0 Not Applicable
05/02/2026 09 PM PDT 3.02 362 0 Not Applicable
05/02/2026 10 PM PDT 3.02 362 0 Not Applicable
05/02/2026 11 PM PDT 3.02 362 0 Not Applicable
05/03/2026 12 AM PDT 3.02 362 0 Not Applicable
05/03/2026 01 AM PDT 3.02 362 0 Not Applicable
05/03/2026 02 AM PDT 3.02 362 0 Not Applicable
05/03/2026 03 AM PDT 3.03 365 + Not Applicable
05/03/2026 04 AM PDT 3.03 365 0 Not Applicable
05/03/2026 05 AM PDT 3.04 368 + Not Applicable
05/03/2026 06 AM PDT 3.04 368 0 Not Applicable
05/03/2026 07 AM PDT 3.04 368 0 Not Applicable
05/03/2026 08 AM PDT 3.04 368 0 Not Applicable
05/03/2026 09 AM PDT 3.04 368 0 Not Applicable
05/03/2026 10 AM PDT 3.04 368 0 Not Applicable
05/03/2026 11 AM PDT 3.04 368 0 Not Applicable
05/03/2026 12 PM PDT 3.04 368 0 Not Applicable
05/03/2026 01 PM PDT 3.04 368 0 Not Applicable
05/03/2026 02 PM PDT 3.04 368 0 Not Applicable
05/03/2026 03 PM PDT 3.04 368 0 Not Applicable
05/03/2026 04 PM PDT 3.05 370 + Not Applicable
05/03/2026 05 PM PDT 3.06 373 + Not Applicable
05/03/2026 06 PM PDT 3.09 382 + Not Applicable
05/03/2026 07 PM PDT 3.12 391 + Not Applicable
05/03/2026 08 PM PDT 3.17 406 + Not Applicable
05/03/2026 09 PM PDT 3.23 425 + Not Applicable
05/03/2026 10 PM PDT 3.28 440 + Not Applicable
05/03/2026 11 PM PDT 3.33 456 + Not Applicable
05/04/2026 12 AM PDT 3.38 473 + Not Applicable
05/04/2026 01 AM PDT 3.42 486 + Not Applicable
05/04/2026 02 AM PDT 3.48 507 + Not Applicable
05/04/2026 03 AM PDT 3.50 515 + Not Applicable
05/04/2026 04 AM PDT 3.52 522 + Not Applicable
05/04/2026 05 AM PDT 3.52 522 0 Not Applicable
05/04/2026 06 AM PDT 3.52 522 0 Not Applicable
05/04/2026 07 AM PDT 3.51 518 - Not Applicable
05/04/2026 08 AM PDT 3.50 515 - Not Applicable
05/04/2026 09 AM PDT 3.49 511 - Not Applicable
05/04/2026 10 AM PDT 3.48 507 - Not Applicable
05/04/2026 11 AM PDT 3.48 507 0 Not Applicable
05/04/2026 12 PM PDT 3.48 507 0 Not Applicable
05/04/2026 01 PM PDT 3.48 507 0 Not Applicable
05/04/2026 02 PM PDT 3.49 511 + Not Applicable
05/04/2026 03 PM PDT 3.50 515 + Not Applicable
05/04/2026 04 PM PDT 3.51 518 + Not Applicable
05/04/2026 05 PM PDT 3.52 522 + Not Applicable
05/04/2026 06 PM PDT 3.54 529 + Not Applicable
05/04/2026 07 PM PDT 3.56 537 + Not Applicable
05/04/2026 08 PM PDT 3.58 544 + Not Applicable
05/04/2026 09 PM PDT 3.60 552 + Not Applicable
05/04/2026 10 PM PDT 3.62 560 + Not Applicable
05/04/2026 11 PM PDT 3.64 567 + Not Applicable
05/05/2026 12 AM PDT 3.66 575 + Not Applicable
05/05/2026 01 AM PDT 3.68 583 + Not Applicable
05/05/2026 02 AM PDT 3.70 591 + Not Applicable
05/05/2026 03 AM PDT 3.72 599 + Not Applicable
05/05/2026 04 AM PDT 3.73 603 + Not Applicable
05/05/2026 05 AM PDT 3.74 607 + Not Applicable
05/05/2026 06 AM PDT 3.74 607 0 Not Applicable
05/05/2026 07 AM PDT 3.74 607 0 Not Applicable
05/05/2026 08 AM PDT 3.73 603 - Not Applicable
05/05/2026 09 AM PDT 3.72 599 - Not Applicable
05/05/2026 10 AM PDT 3.71 595 - Not Applicable
05/05/2026 11 AM PDT 3.69 587 - Not Applicable
05/05/2026 12 PM PDT 3.67 579 - Not Applicable
05/05/2026 01 PM PDT 3.65 571 - Not Applicable
05/05/2026 02 PM PDT 3.63 563 - Not Applicable
05/05/2026 03 PM PDT 3.60 552 - Not Applicable
05/05/2026 04 PM PDT 3.58 544 - Not Applicable
05/05/2026 05 PM PDT 3.56 537 - Not Applicable
05/05/2026 06 PM PDT 3.53 526 - Not Applicable
05/05/2026 07 PM PDT 3.51 518 - Not Applicable
05/05/2026 08 PM PDT 3.50 515 - Not Applicable
05/05/2026 09 PM PDT 3.48 507 - Not Applicable
05/05/2026 10 PM PDT 3.47 504 - Not Applicable
05/05/2026 11 PM PDT 3.45 497 - Not Applicable
05/06/2026 12 AM PDT 3.44 493 - Not Applicable
05/06/2026 01 AM PDT 3.42 486 - Not Applicable
05/06/2026 02 AM PDT 3.40 480 - Not Applicable
05/06/2026 03 AM PDT 3.39 476 - Not Applicable
05/06/2026 04 AM PDT 3.38 473 - Not Applicable
05/06/2026 05 AM PDT 3.37 470 - Not Applicable
05/06/2026 06 AM PDT 3.36 466 - Not Applicable
05/06/2026 07 AM PDT 3.35 463 - Not Applicable
05/06/2026 08 AM PDT 3.34 460 - Not Applicable
05/06/2026 09 AM PDT 3.33 456 - Not Applicable
05/06/2026 10 AM PDT 3.32 453 - Not Applicable
05/06/2026 11 AM PDT 3.32 453 0 Not Applicable
05/06/2026 12 PM PDT 3.31 450 - Not Applicable
05/06/2026 01 PM PDT 3.30 447 - Not Applicable
05/06/2026 02 PM PDT 3.29 444 - Not Applicable
05/06/2026 03 PM PDT 3.28 440 - Not Applicable
05/06/2026 04 PM PDT 3.27 437 - Not Applicable
05/06/2026 05 PM PDT 3.26 434 - Not Applicable
05/06/2026 06 PM PDT 3.25 431 - Not Applicable
05/06/2026 07 PM PDT 3.25 431 0 Not Applicable
05/06/2026 08 PM PDT 3.24 428 - Not Applicable
05/06/2026 09 PM PDT 3.23 425 - Not Applicable
05/06/2026 10 PM PDT 3.22 421 - Not Applicable
05/06/2026 11 PM PDT 3.22 421 0 Not Applicable
05/07/2026 12 AM PDT 3.21 418 - Not Applicable
05/07/2026 01 AM PDT 3.21 418 0 Not Applicable
05/07/2026 02 AM PDT 3.21 418 0 Not Applicable
05/07/2026 03 AM PDT 3.21 418 0 Not Applicable
05/07/2026 04 AM PDT 3.21 418 0 Not Applicable
05/07/2026 05 AM PDT 3.20 415 - Not Applicable
#
# NOTE 1: Stages are rounded to the nearest hundredth (.01) of a foot.
# NOTE 2: Flows are rounded to the nearest (1) cfs.
# NOTE 3: Trends are determined using hourly change in unrounded stage and flow.
# NOTE 4: Maximum Values are determined using unrounded stage and flow.
|